createdAt,value
2023-03-06T00:01:09.613Z,8.85
2023-03-06T00:07:11.365Z,9.20
2023-03-06T00:13:19.169Z,9.40
2023-03-06T00:19:20.917Z,10.10
2023-03-06T00:25:23.464Z,10.63
2023-03-06T00:31:31.459Z,11.75
2023-03-06T00:37:33.687Z,11.73
2023-03-06T00:43:36.475Z,13.98
2023-03-06T00:49:38.270Z,15.40
2023-03-06T00:55:40.155Z,14.50
2023-03-06T01:01:42.345Z,14.38
2023-03-06T01:07:44.223Z,14.57
2023-03-06T01:13:46.248Z,14.32
2023-03-06T01:19:48.230Z,16.50
2023-03-06T01:25:49.957Z,15.88
2023-03-06T01:31:54.133Z,16.83
2023-03-06T01:37:55.989Z,16.42
2023-03-06T01:43:57.976Z,17.33
2023-03-06T01:50:01.918Z,17.40
2023-03-06T01:56:04.099Z,17.95
2023-03-06T02:02:10.833Z,19.73
2023-03-06T02:08:16.523Z,17.73
2023-03-06T02:14:20.882Z,19.05
2023-03-06T02:20:29.104Z,18.10
2023-03-06T02:26:33.032Z,19.23
2023-03-06T02:32:49.292Z,21.27
2023-03-06T02:38:51.724Z,22.08
2023-03-06T02:44:57.482Z,21.10
2023-03-06T02:51:00.485Z,22.17
2023-03-06T02:57:02.340Z,22.23
2023-03-06T03:03:06.355Z,22.25
2023-03-06T03:09:08.138Z,24.77
2023-03-06T03:15:11.352Z,23.52
2023-03-06T03:21:14.823Z,22.52
2023-03-06T03:27:16.713Z,21.58
2023-03-06T03:33:18.987Z,21.45
2023-03-06T03:39:21.459Z,20.90
2023-03-06T03:45:23.377Z,21.95
2023-03-06T03:51:27.832Z,20.50
2023-03-06T03:57:31.997Z,21.58
2023-03-06T04:03:34.700Z,21.58
2023-03-06T04:09:37.102Z,22.30
2023-03-06T04:15:39.102Z,20.58
2023-03-06T04:21:41.716Z,21.55
2023-03-06T04:27:44.441Z,22.73
2023-03-06T04:33:46.442Z,22.02
2023-03-06T04:47:24.497Z,23.42
2023-03-06T04:53:26.904Z,23.27
2023-03-06T04:59:28.639Z,24.00
2023-03-06T05:05:30.583Z,24.38
2023-03-06T05:11:32.451Z,24.13
2023-03-06T05:17:34.556Z,24.10
2023-03-06T05:23:38.615Z,24.50
2023-03-06T05:29:40.376Z,24.55
2023-03-06T05:35:48.440Z,25.60
2023-03-06T05:41:50.266Z,25.23
2023-03-06T05:47:52.023Z,25.23
2023-03-06T05:53:53.809Z,25.13
2023-03-06T05:59:55.776Z,24.98
2023-03-06T06:05:57.573Z,25.52
2023-03-06T06:12:02.532Z,26.27
2023-03-06T06:18:04.362Z,26.15
2023-03-06T06:24:06.418Z,25.27
2023-03-06T06:30:10.507Z,25.25
2023-03-06T06:36:19.755Z,25.17
2023-03-06T06:42:31.990Z,26.40
2023-03-06T06:48:37.720Z,26.58
2023-03-06T06:54:39.470Z,27.15
2023-03-06T07:00:41.255Z,28.05
2023-03-06T07:06:43.173Z,27.77
2023-03-06T07:12:44.947Z,28.58
2023-03-06T07:18:46.684Z,28.88
2023-03-06T07:24:48.455Z,30.88
2023-03-06T07:30:50.444Z,28.52
2023-03-06T07:36:52.291Z,31.00
2023-03-06T07:43:13.010Z,32.03
2023-03-06T07:49:23.255Z,29.67
2023-03-06T07:55:26.998Z,32.40
2023-03-06T08:01:29.087Z,29.00
2023-03-06T08:07:31.498Z,28.83
2023-03-06T08:13:33.676Z,29.38
2023-03-06T08:19:35.441Z,27.88
2023-03-06T08:25:37.291Z,28.83
2023-03-06T08:31:42.061Z,27.65
2023-03-06T08:37:52.502Z,28.75
2023-03-06T08:43:54.694Z,27.85
2023-03-06T08:49:56.784Z,27.70
2023-03-06T08:55:59.165Z,27.35
2023-03-06T09:02:01.579Z,25.52
2023-03-06T09:08:03.394Z,23.42
2023-03-06T09:14:06.643Z,23.38
2023-03-06T09:20:10.645Z,21.17
2023-03-06T09:26:12.505Z,18.92
2023-03-06T09:32:14.344Z,16.13
2023-03-06T09:38:16.383Z,12.48
2023-03-06T09:44:33.826Z,11.18
2023-03-06T09:51:01.252Z,10.23
2023-03-06T09:57:15.137Z,10.32
2023-03-06T10:03:45.871Z,10.85
2023-03-06T10:10:02.672Z,10.43
2023-03-06T10:16:30.594Z,10.73
2023-03-06T10:22:38.868Z,10.77
2023-03-06T10:28:46.624Z,10.07
2023-03-06T10:34:49.757Z,10.55
2023-03-06T10:41:11.708Z,9.75
2023-03-06T10:47:34.900Z,11.13
2023-03-06T10:53:46.520Z,10.75
2023-03-06T10:59:54.183Z,10.07
2023-03-06T11:12:23.972Z,11.05
2023-03-06T11:18:34.868Z,13.07
2023-03-06T11:24:42.397Z,12.13
2023-03-06T11:30:51.759Z,13.00
2023-03-06T11:37:31.941Z,13.52
2023-03-06T11:44:12.064Z,13.00
2023-03-06T11:50:23.012Z,14.10
2023-03-06T11:56:36.897Z,14.52
2023-03-06T12:03:10.738Z,14.77
2023-03-06T12:09:12.717Z,14.88
2023-03-06T12:15:39.073Z,13.32
2023-03-06T12:21:40.742Z,13.82
2023-03-06T12:27:48.683Z,12.95
2023-03-06T12:34:01.644Z,11.05
2023-03-06T12:40:37.228Z,11.57
2023-03-06T12:46:49.343Z,8.63
2023-03-06T12:52:53.422Z,10.38
2023-03-06T12:58:57.008Z,11.98
2023-03-06T13:05:42.677Z,12.55
2023-03-06T13:12:00.382Z,14.95
2023-03-06T13:18:21.138Z,13.82
2023-03-06T13:24:29.496Z,11.38
2023-03-06T13:30:45.680Z,10.68
2023-03-06T13:36:47.549Z,8.02
2023-03-06T13:42:52.668Z,9.70
2023-03-06T13:49:09.592Z,9.43
2023-03-06T13:55:34.319Z,8.83
2023-03-06T14:01:47.370Z,8.32
2023-03-06T14:08:06.153Z,9.50
2023-03-06T14:14:11.964Z,8.57
2023-03-06T14:20:17.885Z,9.88
2023-03-06T14:26:29.494Z,9.45
2023-03-06T14:32:31.408Z,7.50
2023-03-06T14:38:42.447Z,7.00
2023-03-06T14:44:45.245Z,6.22
2023-03-06T14:50:56.338Z,7.53
2023-03-06T14:57:03.310Z,7.72
2023-03-06T15:03:16.283Z,7.33
2023-03-06T15:09:24.395Z,8.70
2023-03-06T15:15:29.577Z,15.07
2023-03-06T15:21:40.466Z,14.18
2023-03-06T15:27:49.817Z,7.25
2023-03-06T15:34:06.729Z,7.88
2023-03-06T15:40:18.500Z,8.30
2023-03-06T15:46:20.266Z,8.38
2023-03-06T15:52:23.047Z,9.05
2023-03-06T15:58:26.825Z,9.00
2023-03-06T16:04:28.802Z,10.30
2023-03-06T16:10:33.313Z,10.63
2023-03-06T16:31:38.237Z,11.35
2023-03-06T16:37:40.910Z,12.13
2023-03-06T16:43:42.694Z,14.88
2023-03-06T16:49:44.514Z,12.82
2023-03-06T16:55:46.551Z,10.75
2023-03-06T17:01:48.410Z,11.63
2023-03-06T17:07:50.505Z,9.27
2023-03-06T17:13:52.350Z,10.13
2023-03-06T17:19:54.131Z,11.80
2023-03-06T17:26:09.920Z,11.77
2023-03-06T17:32:12.030Z,11.93
2023-03-06T17:38:13.906Z,13.75
2023-03-06T17:44:19.781Z,13.15
2023-03-06T17:50:21.731Z,13.55
2023-03-06T17:56:23.570Z,15.85
2023-03-06T18:02:25.397Z,15.13
2023-03-06T18:08:27.190Z,21.35
2023-03-06T18:14:28.981Z,16.08
2023-03-06T18:20:30.957Z,16.23
2023-03-06T18:26:32.915Z,15.88
2023-03-06T18:32:35.201Z,16.70
2023-03-06T18:38:39.668Z,16.45
2023-03-06T18:44:41.818Z,22.58
2023-03-06T18:50:43.785Z,16.83
2023-03-06T18:56:45.573Z,18.15
2023-03-06T19:02:47.438Z,18.80
2023-03-06T19:08:49.237Z,17.45
2023-03-06T19:14:50.988Z,18.55
2023-03-06T19:20:56.553Z,19.15
2023-03-06T19:26:58.322Z,19.05
2023-03-06T19:33:00.196Z,18.83
2023-03-06T19:39:04.236Z,19.83
2023-03-06T19:45:06.660Z,21.80
2023-03-06T19:51:09.054Z,20.83
2023-03-06T19:57:10.768Z,22.58
2023-03-06T20:03:12.610Z,23.63
2023-03-06T20:09:14.470Z,21.88
2023-03-06T20:15:18.968Z,25.25
2023-03-06T20:21:24.173Z,26.25
2023-03-06T20:27:25.987Z,25.27
2023-03-06T20:33:27.943Z,26.23
2023-03-06T20:39:29.668Z,24.30
2023-03-06T20:45:31.523Z,25.73
2023-03-06T20:51:37.467Z,26.17
2023-03-06T20:57:39.274Z,26.38
2023-03-06T21:03:41.160Z,26.83
2023-03-06T21:09:43.472Z,27.20
2023-03-06T21:15:48.334Z,27.85
2023-03-06T21:21:50.443Z,26.00
2023-03-06T21:27:52.421Z,24.67
2023-03-06T21:33:54.601Z,24.50
2023-03-06T21:40:00.047Z,25.33
2023-03-06T21:46:03.406Z,23.70
2023-03-06T21:52:08.913Z,23.58
2023-03-06T21:58:10.704Z,22.73
2023-03-06T22:04:12.506Z,24.30
2023-03-06T22:10:19.601Z,23.20
2023-03-06T22:16:21.817Z,23.27
2023-03-06T22:22:26.305Z,22.70
2023-03-06T22:28:28.167Z,23.13
2023-03-06T22:34:30.070Z,23.35
2023-03-06T22:40:33.023Z,22.80
2023-03-06T22:46:34.955Z,24.20
2023-03-06T22:52:36.776Z,23.65
2023-03-06T22:58:38.975Z,24.08
2023-03-06T23:04:40.800Z,23.27
2023-03-06T23:10:42.731Z,24.10
2023-03-06T23:17:03.456Z,25.17
2023-03-06T23:23:23.882Z,25.48
2023-03-06T23:29:25.669Z,24.90
2023-03-06T23:35:27.491Z,25.80
2023-03-06T23:41:29.225Z,23.92
2023-03-06T23:47:32.614Z,24.27
2023-03-06T23:53:34.672Z,22.92
2023-03-06T23:59:36.475Z,21.98
